Relevés horaires Matro (Suisse)


Relevés horaires à Matro - Lundi 04 Mai 2026
Heure UTC1 Température [°C] Vent [km/h] Hum. [%] Pres.4 [hPa] Visi. [Km] Nébu. [octa] Préc.5 [mm] Cond.
2m. Res. Ros. Dir.2 Vit. Moy. Raf.3
23:00 2.1 -3.7 -3.6 SSE 29.6 -- 37.0 66 850(-0.9/3h) -- -- -- --
22:00 2.2 -3.6 -2.9 SSE 29.6 -- 40.7 69 850(-0.3/3h) -- -- -- --
21:00 2.5 -3.5 -2.3 SSE 33.3 -- 44.4 71 850(0.1/3h) -- -- -- --
20:00 2.9 -3.1 -1.0 SSE 35.2 -- 42.6 75 850(0.0/3h) -- -- -- --
19:00 3.3 -1.8 -1.0 SSE 25.9 -- 38.9 73 850(-0.3/3h) -- -- -- --
18:00 3.5 -1.9 -1.0 S 29.6 -- 53.7 72 850(-0.7/3h) -- -- -- --
17:00 3.9 -0.8 -1.9 S 24.1 -- 35.2 66 850(-0.7/3h) -- -- -- --
16:00 5.0 0.4 -1.5 S 25.9 -- 37.0 63 850(-0.7/3h) -- -- -- --
15:00 4.1 -0.3 -2.4 S 22.2 -- 53.7 63 850(-0.5/3h) -- -- -- --
14:00 4.1 -1.1 -2.7 S 29.6 -- 53.7 61 850(-0.4/3h) -- -- -- --
13:00 4.1 -1.6 -2.8 SSE 35.2 -- 51.9 61 850(-0.4/3h) -- -- -- --
12:00 5.3 0.5 -1.7 SSE 29.6 -- 50.0 61 850(-0.1/3h) -- -- -- --
11:00 4.0 -1.4 -1.4 SSE 31.5 -- 50.0 68 850(0.1/3h) -- -- -- --
10:00 3.4 -1.6 -1.4 S 25.9 -- 38.9 71 850(0.4/3h) -- -- -- --
09:00 2.8 -3.1 -1.6 SSE 33.3 -- 44.4 73 850(0.6/3h) -- -- -- --
08:00 2.9 -1.9 -1.3 SSE 22.2 -- 37.0 74 850(0.8/3h) -- -- -- --
07:00 2.7 -2.3 -1.4 SSE 24.1 -- 33.3 74 850(0.6/3h) -- -- -- --
06:00 2.7 -2.3 -1.5 SSE 24.1 -- 35.2 74 850(0.0/3h) -- -- -- --
05:00 2.6 -2 -1.4 SSE 20.4 -- 24.1 75 850(-0.7/3h) -- -- -- --
04:00 2.7 -2.1 -1.0 S 22.2 -- 29.6 77 850(-0.8/3h) -- -- -- --
03:00 2.8 -1.2 0.6 SE 16.7 -- 35.2 85 850 -- -- -- --
02:00 3.0 -1 -4.8 SE 16.7 -- 29.6 56 850(-0.8/3h) -- -- -- --
01:00 3.1 -2 -6.4 SSE 25.9 -- 35.2 50 850(-0.8/3h) -- -- -- --
00:00 3.5 -1.9 -7.3 SSE 29.6 -- 40.7 45 850(-0.5/3h) -- -- -- --

1 Coordinated Universal Time. Actuellement il est 09:00 locale et 07:00 UTC.

2 Le vent souffle depuis la direction indiquée vers la direction oposée.

3 Les rafales max. sont disponible 40 min après l'heure du relevé.

4 Pour les stations d'altitude (plus de 600m) le géopotentiel du niveau le plus proche de la pression obligatoire est indiqué.

5 Les stations disposant d'un diffuseur peuvent indiquer "trace". Cela signifie que des précipitations ont touchés le sol mais que la quantité est inférieure à 0.1 mm.

Copyright

Les données affichées sur cette page sont la propriété exclusive de Météo Suisse.

Récapitulatif de la journée
Température [°C] Vent [km/h] Ensoleillement4 [h] Precipitations totale5 [mm] Pression [Hpa]
Min1 Max.2 Moy.3 Max. Min Max.
2.6 5.3 0 53.7 1 h 42 min 0 850.0 850.0

1 Température minimale relevée entre 18:00 UTC la veille et 18:00 UTC le jour donné.

2 Température maximale relevée entre 06:00 UTC le jour donné et 06:00 UTC le lendemain.

3 Vent moyen de la journée basé sur les relevés horaires.

4 Ensoleillement en heures relevé entre 06:00 UTC la veille et 06:00 UTC le jour donné.

5 Précipitations totales tombées entre 06:00 UTC la jour donné et 06:00 UTC le lendemain.

Graphiques horaires